createdAt,value
2022-11-05T00:02:05.025Z,2.13
2022-11-05T00:04:53.129Z,1.83
2022-11-05T00:07:44.271Z,1.80
2022-11-05T00:10:18.008Z,1.90
2022-11-05T00:13:26.181Z,1.77
2022-11-05T00:16:14.741Z,1.70
2022-11-05T00:18:45.283Z,1.50
2022-11-05T00:21:34.727Z,1.70
2022-11-05T00:24:33.689Z,2.00
2022-11-05T00:27:04.473Z,2.00
2022-11-05T00:29:35.035Z,1.67
2022-11-05T00:32:06.091Z,1.60
2022-11-05T00:34:36.656Z,1.70
2022-11-05T00:37:07.260Z,1.47
2022-11-05T00:39:37.927Z,1.53
2022-11-05T00:42:25.980Z,1.40
2022-11-05T00:45:02.608Z,1.50
2022-11-05T00:47:52.137Z,1.50
2022-11-05T00:50:24.527Z,1.13
2022-11-05T00:52:57.660Z,1.40
2022-11-05T00:55:33.129Z,1.40
2022-11-05T00:58:05.746Z,1.30
2022-11-05T01:00:38.452Z,1.57
2022-11-05T01:03:11.038Z,1.13
2022-11-05T01:05:43.693Z,1.13
2022-11-05T01:08:15.304Z,1.40
2022-11-05T01:10:48.246Z,1.20
2022-11-05T01:13:21.165Z,1.23
2022-11-05T01:15:52.861Z,1.27
2022-11-05T01:18:25.431Z,1.17
2022-11-05T01:20:56.068Z,1.13
2022-11-05T01:23:45.242Z,1.30
2022-11-05T01:26:15.885Z,1.30
2022-11-05T01:28:46.471Z,1.10
2022-11-05T01:31:17.069Z,1.20
2022-11-05T01:33:47.723Z,1.20
2022-11-05T01:36:18.359Z,1.20
2022-11-05T01:38:48.884Z,1.47
2022-11-05T01:41:19.439Z,1.37
2022-11-05T01:43:52.699Z,1.40
2022-11-05T01:46:26.365Z,1.23
2022-11-05T01:49:03.304Z,1.20
2022-11-05T01:51:32.886Z,1.20
2022-11-05T01:54:06.536Z,1.30
2022-11-05T01:56:39.697Z,1.20
2022-11-05T01:59:12.847Z,1.10
2022-11-05T02:01:43.681Z,1.03
2022-11-05T02:04:17.544Z,1.23
2022-11-05T02:06:49.201Z,1.10
2022-11-05T02:09:23.067Z,1.03
2022-11-05T02:11:53.903Z,0.80
2022-11-05T02:14:24.748Z,1.00
2022-11-05T02:16:58.650Z,1.10
2022-11-05T02:19:56.995Z,1.13
2022-11-05T02:22:45.995Z,1.03
2022-11-05T02:25:28.608Z,1.40
2022-11-05T02:28:15.532Z,1.23
2022-11-05T02:30:49.659Z,1.50
2022-11-05T02:33:32.185Z,1.70
2022-11-05T02:36:19.116Z,1.30
2022-11-05T02:38:52.774Z,1.53
2022-11-05T02:41:28.389Z,1.87
2022-11-05T02:44:10.561Z,1.80
2022-11-05T02:46:44.994Z,2.00
2022-11-05T02:49:21.664Z,1.90
2022-11-05T02:51:56.007Z,2.10
2022-11-05T02:54:30.192Z,1.93
2022-11-05T02:57:04.044Z,2.83
2022-11-05T02:59:34.601Z,2.60
2022-11-05T03:02:07.097Z,2.50
2022-11-05T03:04:37.934Z,2.70
2022-11-05T03:07:22.914Z,2.60
2022-11-05T03:10:22.424Z,2.33
2022-11-05T03:13:00.621Z,2.30
2022-11-05T03:15:38.486Z,2.30
2022-11-05T03:18:13.101Z,2.43
2022-11-05T03:20:48.398Z,2.03
2022-11-05T03:23:23.426Z,2.10
2022-11-05T03:25:57.369Z,2.33
2022-11-05T03:28:31.240Z,2.20
2022-11-05T03:31:02.934Z,2.27
2022-11-05T03:33:36.087Z,2.10
2022-11-05T03:36:11.694Z,2.17
2022-11-05T03:38:45.155Z,1.97
2022-11-05T03:41:17.550Z,2.00
2022-11-05T03:43:51.315Z,2.10
2022-11-05T03:46:25.224Z,2.50
2022-11-05T03:48:58.406Z,2.33
2022-11-05T03:51:34.169Z,2.40
2022-11-05T03:54:08.195Z,2.60
2022-11-05T03:56:43.034Z,2.43
2022-11-05T03:59:14.375Z,2.37
2022-11-05T04:01:45.423Z,2.07
2022-11-05T04:04:16.316Z,1.63
2022-11-05T04:07:04.328Z,1.90
2022-11-05T04:09:52.702Z,1.57
2022-11-05T04:12:40.772Z,1.17
2022-11-05T04:15:12.026Z,1.23
2022-11-05T04:17:42.733Z,1.03
2022-11-05T04:20:49.449Z,1.10
2022-11-05T04:23:37.571Z,1.10
2022-11-05T04:26:08.257Z,0.87
2022-11-05T04:28:57.626Z,1.10
2022-11-05T04:31:28.260Z,1.00
2022-11-05T04:33:59.880Z,0.80
2022-11-05T04:36:30.526Z,1.20
2022-11-05T04:39:01.053Z,1.10
2022-11-05T04:41:31.633Z,1.20
2022-11-05T04:44:02.630Z,1.17
2022-11-05T04:46:33.203Z,1.23
2022-11-05T04:49:03.694Z,1.30
2022-11-05T04:51:34.270Z,1.40
2022-11-05T04:54:05.127Z,1.43
2022-11-05T04:56:35.946Z,1.30
2022-11-05T04:59:06.462Z,1.43
2022-11-05T05:01:37.280Z,1.40
2022-11-05T05:04:08.251Z,1.63
2022-11-05T05:06:38.929Z,1.70
2022-11-05T05:09:09.549Z,1.70
2022-11-05T05:11:41.217Z,1.90
2022-11-05T05:14:11.910Z,1.70
2022-11-05T05:16:42.480Z,1.97
2022-11-05T05:19:13.015Z,1.60
2022-11-05T05:21:43.593Z,1.83
2022-11-05T05:24:16.755Z,1.93
2022-11-05T05:26:48.853Z,1.80
2022-11-05T05:29:19.904Z,2.00
2022-11-05T05:31:50.423Z,1.77
2022-11-05T05:34:21.175Z,1.70
2022-11-05T05:36:51.719Z,1.50
2022-11-05T05:39:22.216Z,1.90
2022-11-05T05:41:52.790Z,1.87
2022-11-05T05:44:23.539Z,1.00
2022-11-05T05:46:55.849Z,1.40
2022-11-05T05:49:26.383Z,1.13
2022-11-05T05:51:56.954Z,1.00
2022-11-05T05:54:32.131Z,1.17
2022-11-05T05:56:59.825Z,1.33
2022-11-05T05:59:30.378Z,1.50
2022-11-05T06:02:01.567Z,1.30
2022-11-05T06:04:32.221Z,1.60
2022-11-05T06:07:02.820Z,1.67
2022-11-05T06:09:33.395Z,1.70
2022-11-05T06:12:03.914Z,1.90
2022-11-05T06:14:34.499Z,2.03
2022-11-05T06:17:05.142Z,2.17
2022-11-05T06:19:35.698Z,2.40
2022-11-05T06:22:06.325Z,2.60
2022-11-05T06:24:36.936Z,2.77
2022-11-05T06:27:07.565Z,2.83
2022-11-05T06:29:38.261Z,3.43
2022-11-05T06:32:08.907Z,2.90
2022-11-05T06:34:39.583Z,2.90
2022-11-05T06:37:10.323Z,3.47
2022-11-05T06:39:41.135Z,4.13
2022-11-05T06:42:18.280Z,3.20
2022-11-05T06:44:45.051Z,3.70
2022-11-05T06:47:15.698Z,4.07
2022-11-05T06:49:46.436Z,3.60
2022-11-05T06:52:18.042Z,3.70
2022-11-05T06:54:48.601Z,3.50
2022-11-05T06:57:19.138Z,4.07
2022-11-05T06:59:49.787Z,3.53
2022-11-05T07:04:58.185Z,3.83
2022-11-05T07:07:28.798Z,3.40
2022-11-05T07:09:59.573Z,3.57
2022-11-05T07:12:30.177Z,4.20
2022-11-05T07:15:00.814Z,4.07
2022-11-05T07:17:31.574Z,3.80
2022-11-05T07:20:02.158Z,4.13
2022-11-05T07:22:32.726Z,4.10
2022-11-05T07:25:03.544Z,4.00
2022-11-05T07:27:35.695Z,4.67
2022-11-05T07:30:09.095Z,4.33
2022-11-05T07:32:43.230Z,4.13
2022-11-05T07:35:14.711Z,4.60
2022-11-05T07:37:47.618Z,4.63
2022-11-05T07:40:20.878Z,4.87
2022-11-05T07:45:31.683Z,4.37
2022-11-05T07:48:04.555Z,4.67
2022-11-05T07:50:37.570Z,4.93
2022-11-05T07:55:53.620Z,4.57
2022-11-05T07:58:24.238Z,4.20
2022-11-05T08:00:54.957Z,4.03
2022-11-05T08:03:26.037Z,4.80
2022-11-05T08:05:56.950Z,4.73
2022-11-05T08:08:28.156Z,4.80
2022-11-05T08:11:06.799Z,4.63
2022-11-05T08:13:38.415Z,4.67
2022-11-05T08:16:10.997Z,4.60
2022-11-05T08:21:21.363Z,4.33
2022-11-05T08:23:52.020Z,4.00
2022-11-05T08:26:22.717Z,4.30
2022-11-05T08:28:53.306Z,4.27
2022-11-05T08:31:24.025Z,4.33
2022-11-05T08:33:59.733Z,4.13
2022-11-05T08:36:27.200Z,4.77
2022-11-05T08:38:58.173Z,4.73
2022-11-05T08:41:28.902Z,4.87
2022-11-05T08:43:59.634Z,4.47
2022-11-05T08:46:30.802Z,5.13
2022-11-05T08:49:01.583Z,4.70
2022-11-05T08:51:32.350Z,4.40
2022-11-05T08:54:02.966Z,4.60
2022-11-05T08:56:33.826Z,4.40
2022-11-05T08:59:04.607Z,4.80
2022-11-05T09:01:36.361Z,4.20
2022-11-05T09:04:07.709Z,4.40
2022-11-05T09:06:38.443Z,4.37
2022-11-05T09:09:09.133Z,4.20
2022-11-05T09:12:10.052Z,4.10
2022-11-05T09:14:12.077Z,4.30
2022-11-05T09:16:45.703Z,4.33
2022-11-05T09:21:55.719Z,4.30
2022-11-05T09:27:14.904Z,4.33
2022-11-05T09:29:45.722Z,4.23
2022-11-05T09:32:17.919Z,4.67
2022-11-05T09:34:49.408Z,4.40
2022-11-05T09:37:20.076Z,4.60
2022-11-05T09:39:50.703Z,4.50
2022-11-05T09:42:24.452Z,4.47
2022-11-05T09:47:37.908Z,3.83
2022-11-05T09:50:12.593Z,4.07
2022-11-05T09:52:43.566Z,3.83
2022-11-05T09:55:21.309Z,4.23
2022-11-05T10:00:47.458Z,4.50
2022-11-05T10:03:21.443Z,4.20
2022-11-05T10:05:53.477Z,4.07
2022-11-05T10:08:26.949Z,4.27
2022-11-05T10:10:59.937Z,3.67
2022-11-05T10:13:33.629Z,4.73
2022-11-05T10:16:06.945Z,4.07
2022-11-05T10:18:41.006Z,3.63
2022-11-05T10:23:55.442Z,4.30
2022-11-05T10:26:28.123Z,4.27
2022-11-05T10:28:59.274Z,3.63
2022-11-05T10:34:11.559Z,3.67
2022-11-05T10:36:42.576Z,3.17
2022-11-05T10:39:15.155Z,3.07
2022-11-05T10:42:22.723Z,3.07
2022-11-05T10:44:57.003Z,3.07
2022-11-05T10:47:55.766Z,2.53
2022-11-05T10:50:29.635Z,2.77
2022-11-05T10:53:03.618Z,2.60
2022-11-05T10:55:36.671Z,2.60
2022-11-05T10:58:13.987Z,2.70
2022-11-05T11:00:46.623Z,2.77
2022-11-05T11:03:39.188Z,2.53
2022-11-05T11:06:17.134Z,2.63
2022-11-05T11:08:50.051Z,2.60
2022-11-05T11:11:33.656Z,2.57
2022-11-05T11:14:07.303Z,2.37
2022-11-05T11:16:40.705Z,2.10
2022-11-05T11:22:22.963Z,2.00
2022-11-05T11:24:54.727Z,2.27
2022-11-05T11:27:28.604Z,2.10
2022-11-05T11:30:02.176Z,1.87
2022-11-05T11:32:38.916Z,2.13
2022-11-05T11:35:17.481Z,1.80
2022-11-05T11:37:49.970Z,2.20
2022-11-05T11:40:23.731Z,2.00
2022-11-05T11:42:57.082Z,2.73
2022-11-05T11:45:30.842Z,2.30
2022-11-05T11:48:05.066Z,2.13
2022-11-05T11:50:39.996Z,2.00
2022-11-05T11:53:28.915Z,2.20
2022-11-05T11:56:02.823Z,1.80
2022-11-05T11:58:45.545Z,1.93
2022-11-05T12:01:58.336Z,2.20
2022-11-05T12:14:00.178Z,2.57
2022-11-05T12:20:01.295Z,2.07
2022-11-05T12:22:37.341Z,2.10
2022-11-05T12:25:20.936Z,1.90
2022-11-05T12:28:03.295Z,1.97
2022-11-05T12:30:38.290Z,1.90
2022-11-05T12:33:25.414Z,1.87
2022-11-05T12:36:06.783Z,1.80
2022-11-05T12:39:01.345Z,1.90
2022-11-05T12:41:35.372Z,1.93
2022-11-05T12:44:23.888Z,1.80
2022-11-05T12:49:49.254Z,1.67
2022-11-05T12:52:31.559Z,1.80
2022-11-05T12:55:06.862Z,1.60
2022-11-05T12:57:40.393Z,1.87
2022-11-05T13:00:18.545Z,1.80
2022-11-05T13:05:36.268Z,1.70
2022-11-05T13:08:09.931Z,1.90
2022-11-05T13:13:29.205Z,1.87
2022-11-05T13:18:42.184Z,1.60
2022-11-05T13:21:14.186Z,1.80
2022-11-05T13:23:49.593Z,2.27
2022-11-05T13:26:23.924Z,1.63
2022-11-05T13:28:58.217Z,2.17
2022-11-05T13:34:10.228Z,2.53
2022-11-05T13:37:04.350Z,1.40
2022-11-05T13:39:39.430Z,2.10
2022-11-05T13:42:33.309Z,1.80
2022-11-05T13:45:22.002Z,1.40
2022-11-05T13:48:28.792Z,1.50
2022-11-05T13:51:25.614Z,2.03
2022-11-05T13:54:11.222Z,1.80
2022-11-05T13:56:54.847Z,2.40
2022-11-05T13:59:56.762Z,1.40
2022-11-05T14:02:30.854Z,1.80
2022-11-05T14:05:04.020Z,1.67
2022-11-05T14:07:37.603Z,1.70
2022-11-05T14:10:15.994Z,1.73
2022-11-05T14:12:49.615Z,1.83
2022-11-05T14:15:23.421Z,2.00
2022-11-05T14:17:59.694Z,1.90
2022-11-05T14:20:47.234Z,1.70
2022-11-05T14:26:33.404Z,1.50
2022-11-05T14:29:25.871Z,2.20
2022-11-05T14:32:08.907Z,1.57
2022-11-05T14:34:47.972Z,1.73
2022-11-05T14:37:30.619Z,1.70
2022-11-05T14:40:06.841Z,1.37
2022-11-05T14:42:38.526Z,1.90
2022-11-05T14:45:27.151Z,1.30
2022-11-05T14:48:00.307Z,1.77
2022-11-05T14:50:35.773Z,1.60
2022-11-05T14:53:13.021Z,1.67
2022-11-05T14:55:46.159Z,1.93
2022-11-05T14:58:32.583Z,1.57
2022-11-05T15:01:05.491Z,1.70
2022-11-05T15:04:12.006Z,1.90
2022-11-05T15:06:44.365Z,1.57
2022-11-05T15:09:28.318Z,1.73
2022-11-05T15:12:13.531Z,1.60
2022-11-05T15:14:51.314Z,1.70
2022-11-05T15:17:28.216Z,1.73
2022-11-05T15:23:05.680Z,1.60
2022-11-05T15:25:40.694Z,1.60
2022-11-05T15:28:14.608Z,1.63
2022-11-05T15:30:59.738Z,1.80
2022-11-05T15:33:31.454Z,1.67
2022-11-05T15:36:12.949Z,1.47
2022-11-05T15:39:02.013Z,1.60
2022-11-05T15:41:19.271Z,1.70
2022-11-05T15:43:51.354Z,1.47
2022-11-05T15:46:24.498Z,1.90
2022-11-05T15:48:56.863Z,1.40
2022-11-05T15:51:28.034Z,1.57
2022-11-05T15:54:29.721Z,1.80
2022-11-05T15:56:36.151Z,1.67
2022-11-05T15:59:09.673Z,2.03
2022-11-05T16:01:48.496Z,1.40
2022-11-05T16:04:22.497Z,1.50
2022-11-05T16:09:36.798Z,1.97
2022-11-05T16:12:24.889Z,1.70
2022-11-05T16:15:20.359Z,1.70
2022-11-05T16:17:54.571Z,1.80
2022-11-05T16:20:30.296Z,1.73
2022-11-05T16:23:02.762Z,2.00
2022-11-05T16:25:39.319Z,1.57
2022-11-05T16:28:22.235Z,2.23
2022-11-05T16:30:58.090Z,1.83
2022-11-05T16:33:50.011Z,2.33
2022-11-05T16:36:20.968Z,1.83
2022-11-05T16:38:51.949Z,2.30
2022-11-05T16:41:24.064Z,1.97
2022-11-05T16:43:56.951Z,2.53
2022-11-05T16:46:29.617Z,2.60
2022-11-05T16:49:00.398Z,4.20
2022-11-05T16:51:31.082Z,4.20
2022-11-05T16:54:01.735Z,3.07
2022-11-05T16:56:32.757Z,3.20
2022-11-05T16:59:03.656Z,2.10
2022-11-05T17:01:35.177Z,1.83
2022-11-05T17:04:05.995Z,2.00
2022-11-05T17:06:36.639Z,2.47
2022-11-05T17:09:07.602Z,2.73
2022-11-05T17:11:38.355Z,2.20
2022-11-05T17:14:10.891Z,3.13
2022-11-05T17:16:42.230Z,2.90
2022-11-05T17:19:16.182Z,1.93
2022-11-05T17:21:46.994Z,2.47
2022-11-05T17:24:17.540Z,2.20
2022-11-05T17:26:48.097Z,2.43
2022-11-05T17:29:18.907Z,1.90
2022-11-05T17:31:49.888Z,2.20
2022-11-05T17:34:20.477Z,2.10
2022-11-05T17:39:31.906Z,2.03
2022-11-05T17:42:02.835Z,1.90
2022-11-05T17:44:34.122Z,2.13
2022-11-05T17:47:04.737Z,2.40
2022-11-05T17:49:35.475Z,2.40
2022-11-05T17:52:06.645Z,1.73
2022-11-05T17:54:37.250Z,2.33
2022-11-05T17:57:08.261Z,2.00
2022-11-05T17:59:38.998Z,2.30
2022-11-05T18:02:11.032Z,2.17
2022-11-05T18:04:42.480Z,2.00
2022-11-05T18:07:14.647Z,1.90
2022-11-05T18:09:45.355Z,2.10
2022-11-05T18:12:16.039Z,2.00
2022-11-05T18:14:46.737Z,2.40
2022-11-05T18:17:17.398Z,2.20
2022-11-05T18:19:48.045Z,2.63
2022-11-05T18:22:19.635Z,2.30
2022-11-05T18:24:50.285Z,2.77
2022-11-05T18:27:22.622Z,2.43
2022-11-05T18:29:53.389Z,2.50
2022-11-05T18:32:24.072Z,2.33
2022-11-05T18:34:54.795Z,2.07
2022-11-05T18:37:25.669Z,3.30
2022-11-05T18:42:35.301Z,3.70
2022-11-05T18:45:06.724Z,2.63
2022-11-05T18:47:37.446Z,3.37
2022-11-05T18:50:10.676Z,2.40
2022-11-05T18:52:41.336Z,2.50
2022-11-05T18:55:12.599Z,2.13
2022-11-05T18:57:43.251Z,2.57
2022-11-05T19:00:16.284Z,2.57
2022-11-05T19:02:47.057Z,2.80
2022-11-05T19:05:33.454Z,3.43
2022-11-05T19:07:50.421Z,2.90
2022-11-05T19:10:21.345Z,2.47
2022-11-05T19:12:52.039Z,2.90
2022-11-05T19:15:22.964Z,2.67
2022-11-05T19:17:53.539Z,3.00
2022-11-05T19:20:24.352Z,3.13
2022-11-05T19:22:55.008Z,3.13
2022-11-05T19:25:25.740Z,2.80
2022-11-05T19:27:57.924Z,2.53
2022-11-05T19:30:28.673Z,3.07
2022-11-05T19:32:59.301Z,3.33
2022-11-05T19:35:29.921Z,3.80
2022-11-05T19:38:00.507Z,8.20
2022-11-05T19:40:31.174Z,6.63
2022-11-05T19:43:01.907Z,5.53
2022-11-05T19:45:44.770Z,5.10
2022-11-05T19:48:05.175Z,5.30
2022-11-05T19:50:36.358Z,3.03
2022-11-05T19:53:06.920Z,4.33
2022-11-05T19:55:41.599Z,2.80
2022-11-05T19:58:12.656Z,2.80
2022-11-05T20:00:43.686Z,3.40
2022-11-05T20:03:14.965Z,4.70
2022-11-05T20:05:46.403Z,3.90
2022-11-05T20:08:17.089Z,3.63
2022-11-05T20:10:47.881Z,3.63
2022-11-05T20:13:20.122Z,3.83
2022-11-05T20:15:50.932Z,3.70
2022-11-05T20:18:21.771Z,3.90
2022-11-05T20:21:03.903Z,3.67
2022-11-05T20:23:36.139Z,3.70
2022-11-05T20:26:08.924Z,5.00
2022-11-05T20:28:40.879Z,3.67
2022-11-05T20:31:13.125Z,3.80
2022-11-05T20:33:44.774Z,4.43
2022-11-05T20:36:17.815Z,3.60
2022-11-05T20:38:51.417Z,3.97
2022-11-05T20:41:22.774Z,4.20
2022-11-05T20:43:53.569Z,5.17
2022-11-05T20:46:25.356Z,4.67
2022-11-05T20:48:56.794Z,4.37
2022-11-05T20:51:27.411Z,4.40
2022-11-05T20:53:59.742Z,4.37
2022-11-05T20:56:33.084Z,4.27
2022-11-05T20:59:05.615Z,3.33
2022-11-05T21:01:37.011Z,3.50
2022-11-05T21:04:08.067Z,4.10
2022-11-05T21:06:38.812Z,3.90
2022-11-05T21:09:09.411Z,4.27
2022-11-05T21:11:57.453Z,4.70
2022-11-05T21:14:28.138Z,4.80
2022-11-05T21:16:58.915Z,4.50
2022-11-05T21:19:31.131Z,6.70
2022-11-05T21:22:02.452Z,7.93
2022-11-05T21:24:34.546Z,7.17
2022-11-05T21:27:05.229Z,8.00
2022-11-05T21:29:36.988Z,6.70
2022-11-05T21:32:07.860Z,6.80
2022-11-05T21:34:38.400Z,4.70
2022-11-05T21:37:09.087Z,5.17
2022-11-05T21:39:44.997Z,5.00
2022-11-05T21:42:15.749Z,5.47
2022-11-05T21:44:47.587Z,5.43
2022-11-05T21:47:18.219Z,4.67
2022-11-05T21:49:48.848Z,4.90
2022-11-05T21:52:40.672Z,6.00
2022-11-05T21:55:31.329Z,5.10
2022-11-05T21:58:22.900Z,4.57
2022-11-05T22:03:34.301Z,5.17
2022-11-05T22:06:06.320Z,6.20
2022-11-05T22:08:41.249Z,5.13
2022-11-05T22:11:12.758Z,5.57
2022-11-05T22:13:44.148Z,5.03
2022-11-05T22:16:14.833Z,5.30
2022-11-05T22:18:45.372Z,5.70
2022-11-05T22:21:18.960Z,4.63
2022-11-05T22:23:49.550Z,4.97
2022-11-05T22:26:21.245Z,5.33
2022-11-05T22:28:53.353Z,4.93
2022-11-05T22:31:24.399Z,5.97
2022-11-05T22:33:54.959Z,5.60
2022-11-05T22:36:25.645Z,5.73
2022-11-05T22:38:56.310Z,6.67
2022-11-05T22:41:27.335Z,6.13
2022-11-05T22:43:58.191Z,5.57
2022-11-05T22:46:29.485Z,5.67
2022-11-05T22:49:00.479Z,6.83
2022-11-05T22:51:33.291Z,5.83
2022-11-05T22:54:04.074Z,6.43
2022-11-05T22:56:36.576Z,5.60
2022-11-05T22:59:09.232Z,6.13
2022-11-05T23:01:40.034Z,6.03
2022-11-05T23:04:11.214Z,6.97
2022-11-05T23:07:00.431Z,6.53
2022-11-05T23:09:50.929Z,6.30
2022-11-05T23:12:28.368Z,6.10
2022-11-05T23:15:01.864Z,6.17
2022-11-05T23:17:50.121Z,5.90
2022-11-05T23:20:41.479Z,6.00
2022-11-05T23:23:31.179Z,6.13
2022-11-05T23:26:04.141Z,5.80
2022-11-05T23:28:53.343Z,5.90
2022-11-05T23:31:41.644Z,5.07
2022-11-05T23:34:12.239Z,6.23
2022-11-05T23:37:00.445Z,6.23
2022-11-05T23:39:31.025Z,6.50
2022-11-05T23:42:18.957Z,5.80
2022-11-05T23:45:10.315Z,5.90
2022-11-05T23:50:19.489Z,5.73
2022-11-05T23:52:50.032Z,4.93
2022-11-05T23:55:20.770Z,6.80
2022-11-05T23:57:51.988Z,7.13
